Time,TemperatureF,DewpointF,PressureIn,WindDirection,WindDirectionDegrees,WindSpeedMPH,WindSpeedGustMPH,Humidity,HourlyPrecipIn,Conditions,Clouds,dailyrainin,SoftwareType,DateUTC
2014-07-28 00:00:00,66.6,66.0,29.68,SSW,200,0.0,0.0,98,0.00,,,0.00,Wunderground v.1.15,2014-07-28 04:00:00,
2014-07-28 00:01:00,66.6,66.0,29.68,SSW,200,0.0,0.0,98,0.00,,,0.00,Wunderground v.1.15,2014-07-28 04:01:00,
2014-07-28 00:02:00,66.6,66.0,29.68,SSW,200,0.0,0.0,98,0.00,,,0.00,Wunderground v.1.15,2014-07-28 04:02:00,
2014-07-28 00:03:00,66.6,66.0,29.68,SSW,200,0.0,0.0,98,0.00,,,0.00,Wunderground v.1.15,2014-07-28 04:03:00,
2014-07-28 00:05:00,66.6,66.0,29.67,SSW,200,0.0,0.0,98,0.00,,,0.00,Wunderground v.1.15,2014-07-28 04:05:00,
2014-07-28 00:06:00,66.6,66.0,29.68,SSW,200,0.0,0.0,98,0.00,,,0.00,Wunderground v.1.15,2014-07-28 04:06:00,
2014-07-28 00:12:00,66.6,66.0,29.68,SSW,200,0.0,0.0,98,0.00,,,0.00,Wunderground v.1.15,2014-07-28 04:12:00,
2014-07-28 00:18:00,66.7,66.1,29.67,SSW,200,0.0,0.0,98,0.00,,,0.00,Wunderground v.1.15,2014-07-28 04:18:00,
2014-07-28 00:24:00,66.7,66.1,29.68,SSW,200,0.0,0.0,98,0.00,,,0.00,Wunderground v.1.15,2014-07-28 04:24:00,
2014-07-28 00:30:00,66.7,66.1,29.67,SSW,201,0.0,0.0,98,0.00,,,0.00,Wunderground v.1.15,2014-07-28 04:30:00,
2014-07-28 00:35:00,66.7,66.1,29.68,SSW,201,0.0,0.0,98,0.00,,,0.00,Wunderground v.1.15,2014-07-28 04:35:00,
2014-07-28 00:41:00,66.7,66.1,29.68,SSW,201,0.0,0.0,98,0.00,,,0.00,Wunderground v.1.15,2014-07-28 04:41:00,
2014-07-28 00:47:00,66.7,66.1,29.67,SSW,201,0.0,0.0,98,0.00,,,0.00,Wunderground v.1.15,2014-07-28 04:47:00,
2014-07-28 00:52:00,66.7,66.1,29.67,SSW,201,0.0,0.0,98,0.00,,,0.00,Wunderground v.1.15,2014-07-28 04:52:00,
2014-07-28 00:58:00,66.8,66.2,29.67,SSW,201,0.0,0.0,98,0.00,,,0.00,Wunderground v.1.15,2014-07-28 04:58:00,
2014-07-28 01:04:00,66.7,66.1,29.67,SSW,200,1.0,2.0,98,0.00,,,0.00,Wunderground v.1.15,2014-07-28 05:04:00,
2014-07-28 01:09:00,66.8,66.2,29.67,ESE,123,1.0,2.0,98,0.00,,,0.00,Wunderground v.1.15,2014-07-28 05:09:00,
2014-07-28 01:15:00,66.8,66.2,29.66,ESE,123,0.0,0.0,98,0.00,,,0.00,Wunderground v.1.15,2014-07-28 05:15:00,
2014-07-28 01:20:00,66.8,66.2,29.66,ESE,123,0.0,0.0,98,0.00,,,0.00,Wunderground v.1.15,2014-07-28 05:20:00,
2014-07-28 01:26:00,66.8,66.2,29.67,SE,124,4.0,4.0,98,0.00,,,0.00,Wunderground v.1.15,2014-07-28 05:26:00,
2014-07-28 01:31:00,66.8,66.2,29.67,SE,126,0.0,1.0,98,0.00,,,0.00,Wunderground v.1.15,2014-07-28 05:31:00,
2014-07-28 01:37:00,66.8,66.2,29.67,ESE,105,2.0,2.0,98,0.00,,,0.00,Wunderground v.1.15,2014-07-28 05:37:00,
2014-07-28 01:43:00,66.9,66.3,29.67,ESE,105,0.0,1.0,98,0.00,,,0.00,Wunderground v.1.15,2014-07-28 05:43:00,
2014-07-28 01:48:00,66.9,66.3,29.66,ESE,105,0.0,1.0,98,0.00,,,0.00,Wunderground v.1.15,2014-07-28 05:48:00,
2014-07-28 01:54:00,67.0,66.4,29.66,SE,142,0.0,1.0,98,0.00,,,0.00,Wunderground v.1.15,2014-07-28 05:54:00,
2014-07-28 01:59:00,67.0,66.4,29.66,SE,142,0.0,1.0,98,0.00,,,0.00,Wunderground v.1.15,2014-07-28 05:59:00,
2014-07-28 02:04:00,67.0,66.4,29.66,SE,142,1.0,2.0,98,0.00,,,0.00,Wunderground v.1.15,2014-07-28 06:04:00,
2014-07-28 02:09:00,67.0,66.4,29.65,SE,142,0.0,2.0,98,0.00,,,0.00,Wunderground v.1.15,2014-07-28 06:09:00,
2014-07-28 02:14:00,67.0,66.4,29.65,SE,142,0.0,0.0,98,0.00,,,0.00,Wunderground v.1.15,2014-07-28 06:14:00,
2014-07-28 02:19:00,67.0,66.4,29.65,SE,142,0.0,0.0,98,0.00,,,0.00,Wunderground v.1.15,2014-07-28 06:19:00,
2014-07-28 02:24:00,67.1,66.5,29.66,SE,142,0.0,1.0,98,0.00,,,0.00,Wunderground v.1.15,2014-07-28 06:24:00,
2014-07-28 02:29:00,67.1,66.5,29.66,SE,142,0.0,1.0,98,0.00,,,0.00,Wunderground v.1.15,2014-07-28 06:29:00,
2014-07-28 02:34:00,67.2,66.6,29.66,SE,142,0.0,0.0,98,0.00,,,0.00,Wunderground v.1.15,2014-07-28 06:34:00,
2014-07-28 02:39:00,67.2,66.6,29.66,SE,142,0.0,0.0,98,0.00,,,0.00,Wunderground v.1.15,2014-07-28 06:39:00,
2014-07-28 02:44:00,67.2,66.6,29.66,SE,142,0.0,0.0,98,0.00,,,0.00,Wunderground v.1.15,2014-07-28 06:44:00,
2014-07-28 02:49:00,67.2,66.6,29.66,SE,142,0.0,0.0,98,0.00,,,0.00,Wunderground v.1.15,2014-07-28 06:49:00,
2014-07-28 02:54:00,67.2,66.6,29.66,SE,142,0.0,0.0,98,0.00,,,0.00,Wunderground v.1.15,2014-07-28 06:54:00,
2014-07-28 02:59:00,67.2,66.6,29.66,SE,142,0.0,0.0,98,0.00,,,0.00,Wunderground v.1.15,2014-07-28 06:59:00,
2014-07-28 03:04:00,67.2,66.6,29.65,SE,142,0.0,0.0,98,0.00,,,0.00,Wunderground v.1.15,2014-07-28 07:04:00,
2014-07-28 03:09:00,67.2,66.6,29.65,SE,142,0.0,0.0,98,0.00,,,0.00,Wunderground v.1.15,2014-07-28 07:09:00,
2014-07-28 03:14:00,67.3,66.7,29.65,SE,142,0.0,0.0,98,0.00,,,0.00,Wunderground v.1.15,2014-07-28 07:14:00,
2014-07-28 03:19:00,67.2,66.6,29.65,SE,142,0.0,1.0,98,0.00,,,0.00,Wunderground v.1.15,2014-07-28 07:19:00,
2014-07-28 03:24:00,67.3,66.7,29.65,SE,142,0.0,0.0,98,0.00,,,0.00,Wunderground v.1.15,2014-07-28 07:24:00,
2014-07-28 03:29:00,67.2,66.6,29.64,SE,142,0.0,0.0,98,0.00,,,0.00,Wunderground v.1.15,2014-07-28 07:29:00,
2014-07-28 03:34:00,67.3,66.7,29.64,SE,142,2.0,4.0,98,0.00,,,0.00,Wunderground v.1.15,2014-07-28 07:34:00,
2014-07-28 03:40:00,67.3,66.7,29.64,SE,142,0.0,1.0,98,0.00,,,0.00,Wunderground v.1.15,2014-07-28 07:40:00,
2014-07-28 03:45:00,67.3,66.7,29.64,SE,142,0.0,1.0,98,0.00,,,0.00,Wunderground v.1.15,2014-07-28 07:45:00,
2014-07-28 03:50:00,67.3,66.7,29.64,SE,142,0.0,0.0,98,0.00,,,0.00,Wunderground v.1.15,2014-07-28 07:50:00,
2014-07-28 03:55:00,67.3,66.7,29.63,SE,142,0.0,0.0,98,0.00,,,0.00,Wunderground v.1.15,2014-07-28 07:55:00,
2014-07-28 04:00:00,67.3,66.7,29.63,SE,142,0.0,0.0,98,0.00,,,0.00,Wunderground v.1.15,2014-07-28 08:00:00,
2014-07-28 04:05:00,67.3,66.7,29.63,SE,142,0.0,2.0,98,0.00,,,0.00,Wunderground v.1.15,2014-07-28 08:05:00,
2014-07-28 04:10:00,67.3,66.7,29.64,SE,142,0.0,0.0,98,0.00,,,0.00,Wunderground v.1.15,2014-07-28 08:10:00,
2014-07-28 04:15:00,67.3,66.7,29.64,SE,142,0.0,1.0,98,0.00,,,0.00,Wunderground v.1.15,2014-07-28 08:15:00,
2014-07-28 04:20:00,67.4,67.1,29.64,SE,142,0.0,0.0,99,0.00,,,0.00,Wunderground v.1.15,2014-07-28 08:20:00,
2014-07-28 04:25:00,67.4,67.1,29.65,SE,142,0.0,0.0,99,0.00,,,0.00,Wunderground v.1.15,2014-07-28 08:25:00,
2014-07-28 04:30:00,67.4,66.8,29.65,SE,142,0.0,0.0,98,0.00,,,0.00,Wunderground v.1.15,2014-07-28 08:30:00,
2014-07-28 04:35:00,67.4,67.1,29.65,SE,142,0.0,0.0,99,0.00,,,0.00,Wunderground v.1.15,2014-07-28 08:35:00,
2014-07-28 04:40:00,67.4,66.8,29.65,SE,142,0.0,0.0,98,0.00,,,0.00,Wunderground v.1.15,2014-07-28 08:40:00,
2014-07-28 04:45:00,67.4,67.1,29.65,SE,142,0.0,2.0,99,0.00,,,0.00,Wunderground v.1.15,2014-07-28 08:45:00,
2014-07-28 04:50:00,67.4,66.8,29.65,SE,142,0.0,0.0,98,0.00,,,0.00,Wunderground v.1.15,2014-07-28 08:50:00,